Time;durP1;ratioP1;P1;durP2;ratioP2;P2;SDS_P1;SDS_P2;PMS_P1;PMS_P2;Temp;Humidity;BMP_temperature;BMP_pressure;BME280_temperature;BME280_humidity;BME280_pressure;Samples;Min_cycle;Max_cycle;Signal;HPM_P1;HPM_P2
2023/06/03 00:00:05;;;;;;;;;7.00;5.75;;;;;22.87;35.37;101267.59;4957977;28;45363;-64
2023/06/03 00:02:31;;;;;;;;;7.00;7.00;;;;;22.88;35.00;101269.28;4957942;28;46294;-55
2023/06/03 00:04:56;;;;;;;;;7.00;7.00;;;;;22.89;34.96;101270.97;4940341;28;46354;-52
2023/06/03 00:07:22;;;;;;;;;7.75;7.50;;;;;22.89;35.19;101265.69;4958087;28;45427;-51
2023/06/03 00:09:47;;;;;;;;;9.25;8.00;;;;;22.87;35.08;101263.16;4958027;28;45223;-51
2023/06/03 00:12:12;;;;;;;;;6.00;6.00;;;;;22.86;35.68;101266.72;4957578;28;46174;-56
2023/06/03 00:14:38;;;;;;;;;9.25;7.75;;;;;22.87;35.35;101267.59;4957566;28;54870;-56
2023/06/03 00:17:04;;;;;;;;;7.75;6.25;;;;;22.87;35.39;101267.59;4958098;28;45261;-50
2023/06/03 00:19:29;;;;;;;;;8.50;7.00;;;;;22.84;35.40;101264.19;4957350;28;45531;-54
2023/06/03 00:22:00;;;;;;;;;8.00;6.75;;;;;22.87;35.27;101270.25;4957739;28;46727;-47
2023/06/03 00:24:25;;;;;;;;;6.00;6.00;;;;;22.86;35.50;101266.72;4957547;28;45889;-50
2023/06/03 00:26:52;;;;;;;;;5.75;5.75;;;;;22.84;35.73;101264.19;4957310;28;47826;-48
2023/06/03 00:29:19;;;;;;;;;6.50;6.50;;;;;22.85;36.00;101265.03;4957726;28;45220;-55
2023/06/03 00:31:44;;;;;;;;;6.00;6.00;;;;;22.84;35.48;101268.59;4957588;28;47432;-58
2023/06/03 00:34:10;;;;;;;;;7.75;6.75;;;;;22.84;35.55;101261.53;4957958;28;45260;-62
2023/06/03 00:36:35;;;;;;;;;4.25;4.25;;;;;22.84;35.46;101264.19;4957669;28;45463;-51
2023/06/03 00:39:01;;;;;;;;;7.50;6.00;;;;;22.84;35.81;101253.63;4957858;28;45340;-51
2023/06/03 00:41:26;;;;;;;;;9.25;8.00;;;;;22.85;35.65;101259.75;4957404;28;46363;-65
2023/06/03 00:43:52;;;;;;;;;6.50;6.00;;;;;22.84;35.88;101247.47;4957283;28;45346;-56
2023/06/03 00:46:19;;;;;;;;;6.00;6.00;;;;;22.83;35.96;101251.91;4957526;28;45337;-54
2023/06/03 00:48:45;;;;;;;;;6.75;6.50;;;;;22.83;35.40;101251.91;4940331;28;45529;-55
2023/06/03 00:51:11;;;;;;;;;7.25;7.25;;;;;22.83;35.70;101246.63;4957548;28;46398;-51
2023/06/03 00:53:37;;;;;;;;;7.00;7.00;;;;;22.82;35.66;101244.91;4957539;28;45414;-51
2023/06/03 00:56:03;;;;;;;;;8.75;7.00;;;;;22.83;36.19;101245.75;4957310;28;45382;-50
2023/06/03 00:58:29;;;;;;;;;7.50;7.50;;;;;22.83;35.86;101243.97;4957392;28;45560;-53
2023/06/03 01:00:55;;;;;;;;;6.75;6.75;;;;;22.82;35.84;101239.63;4957353;28;46112;-58
2023/06/03 01:03:20;;;;;;;;;8.50;7.50;;;;;22.82;36.17;101237.00;4939902;28;45631;-54
2023/06/03 01:05:55;;;;;;;;;7.00;6.00;;;;;22.82;36.00;101242.28;4957299;28;45294;-55
2023/06/03 01:08:31;;;;;;;;;6.25;6.25;;;;;22.81;35.85;101240.56;4940277;28;45350;-56
2023/06/03 01:11:15;;;;;;;;;12.25;7.00;;;;;22.82;35.81;101229.06;4957033;28;46475;-51
2023/06/03 01:13:49;;;;;;;;;7.00;7.00;;;;;22.81;35.85;101232.66;4957398;28;45706;-53
2023/06/03 01:16:17;;;;;;;;;6.00;6.00;;;;;22.81;36.08;101231.81;4957251;28;45287;-53
2023/06/03 01:18:44;;;;;;;;;8.00;5.25;;;;;22.81;36.21;101224.72;4957769;28;45473;-61
2023/06/03 01:21:12;;;;;;;;;6.00;6.00;;;;;22.81;36.18;101227.34;4957321;28;46474;-65
2023/06/03 01:23:41;;;;;;;;;6.50;6.00;;;;;22.81;35.75;101229.16;4957090;28;45823;-60
2023/06/03 01:26:07;;;;;;;;;6.75;6.75;;;;;22.80;36.19;101230.94;4957085;28;45303;-61
2023/06/03 01:28:32;;;;;;;;;8.00;5.25;;;;;22.81;35.93;101227.34;4957385;28;45423;-66
2023/06/03 01:31:00;;;;;;;;;7.00;7.00;;;;;22.82;36.17;101229.06;4959679;28;46494;-65
2023/06/03 01:33:28;;;;;;;;;7.25;7.25;;;;;22.80;35.78;101230.94;4960466;28;45869;-61
2023/06/03 01:35:57;;;;;;;;;6.75;6.75;;;;;22.81;36.00;101226.53;4960432;28;45304;-62
2023/06/03 01:38:23;;;;;;;;;5.75;5.75;;;;;22.80;36.19;101230.09;4960643;28;45560;-65
2023/06/03 01:40:48;;;;;;;;;8.00;6.25;;;;;22.79;36.08;101223.13;4960297;28;46338;-65
2023/06/03 01:43:14;;;;;;;;;8.75;5.75;;;;;22.78;36.33;101224.88;4960666;28;45384;-64
2023/06/03 01:45:40;;;;;;;;;8.00;8.00;;;;;22.77;36.66;101220.53;4960690;28;45855;-64
2023/06/03 01:48:05;;;;;;;;;8.75;8.25;;;;;22.79;36.24;101228.41;4960345;28;45427;-62
2023/06/03 01:50:31;;;;;;;;;8.75;8.00;;;;;22.78;36.51;101224.88;4960095;28;45414;-61
2023/06/03 01:52:56;;;;;;;;;8.25;7.00;;;;;22.78;36.31;101227.53;4960138;28;45345;-63
2023/06/03 01:55:21;;;;;;;;;7.25;7.25;;;;;22.76;36.47;101228.56;4960272;28;45387;-63
2023/06/03 01:57:47;;;;;;;;;6.75;6.75;;;;;22.77;36.39;101230.28;4960394;28;45528;-63
2023/06/03 02:00:13;;;;;;;;;9.75;7.50;;;;;22.76;36.32;101225.94;4960103;28;45473;-65
2023/06/03 02:02:39;;;;;;;;;10.00;6.75;;;;;22.76;36.40;101234.72;4942534;28;45759;-64
2023/06/03 02:05:04;;;;;;;;;9.25;5.50;;;;;22.75;36.46;101232.16;4959904;28;45386;-64
2023/06/03 02:07:30;;;;;;;;;8.00;6.25;;;;;22.75;36.27;101222.44;4959850;28;45437;-64
2023/06/03 02:09:57;;;;;;;;;7.25;7.00;;;;;22.75;36.60;101225.09;4959821;28;45501;-65
2023/06/03 02:12:26;;;;;;;;;8.00;6.25;;;;;22.76;36.53;101225.94;4959882;28;45512;-63
2023/06/03 02:14:53;;;;;;;;;10.75;7.25;;;;;22.75;36.43;101230.38;4960072;28;45358;-62
2023/06/03 02:17:26;;;;;;;;;7.25;7.00;;;;;22.75;36.66;101221.59;4960100;28;45358;-65
2023/06/03 02:19:55;;;;;;;;;7.00;6.00;;;;;22.74;36.35;101226.03;4959621;28;46474;-64
2023/06/03 02:22:20;;;;;;;;;6.25;6.00;;;;;22.74;36.66;101215.47;4959732;28;45741;-65
2023/06/03 02:24:46;;;;;;;;;8.75;7.75;;;;;22.74;36.76;101220.75;4942814;28;45414;-61
2023/06/03 02:27:14;;;;;;;;;7.25;7.25;;;;;22.73;36.70;101219.03;4942343;28;45619;-59
2023/06/03 02:29:41;;;;;;;;;7.00;6.00;;;;;22.74;36.88;101220.75;4959030;28;45387;-58
2023/06/03 02:32:07;;;;;;;;;8.25;8.00;;;;;22.74;36.69;101214.59;4959462;28;45802;-61
2023/06/03 02:34:32;;;;;;;;;8.75;8.50;;;;;22.74;36.80;101220.75;4959734;28;45184;-59
2023/06/03 02:36:58;;;;;;;;;8.50;7.75;;;;;22.73;37.06;101213.75;4959936;28;45786;-64
2023/06/03 02:39:23;;;;;;;;;6.00;5.75;;;;;22.75;36.79;101219.81;4959450;28;45486;-64
2023/06/03 02:41:48;;;;;;;;;7.50;7.00;;;;;22.75;36.82;101217.16;4958921;28;45433;-55
2023/06/03 02:44:16;;;;;;;;;8.00;7.00;;;;;22.75;36.49;101216.28;4959861;28;45734;-64
2023/06/03 02:46:41;;;;;;;;;8.00;8.00;;;;;22.74;36.95;101223.38;4959488;28;45371;-64
2023/06/03 02:49:08;;;;;;;;;7.25;7.00;;;;;22.75;36.43;101219.81;4959256;28;45373;-53
2023/06/03 02:51:33;;;;;;;;;9.00;7.75;;;;;22.75;36.86;101216.28;4959211;28;45405;-65
2023/06/03 02:53:59;;;;;;;;;9.00;9.00;;;;;22.75;36.75;101217.16;4959490;28;45361;-63
2023/06/03 02:56:25;;;;;;;;;7.25;7.25;;;;;22.74;36.95;101211.94;4959412;28;45347;-65
2023/06/03 02:58:51;;;;;;;;;10.25;6.50;;;;;22.75;36.92;101211.88;4959101;28;47169;-58
2023/06/03 03:01:20;;;;;;;;;6.00;6.00;;;;;22.75;36.86;101213.66;4959409;28;45302;-63
2023/06/03 03:03:46;;;;;;;;;10.50;8.00;;;;;22.75;36.82;101225.09;4959471;28;45336;-59
2023/06/03 03:06:12;;;;;;;;;6.50;6.00;;;;;22.74;37.20;101220.75;4959026;28;45352;-63
2023/06/03 03:08:38;;;;;;;;;9.50;8.00;;;;;22.74;37.21;101215.47;4958918;28;45570;-66
2023/06/03 03:11:05;;;;;;;;;8.50;8.00;;;;;22.76;37.13;101218.00;4958918;28;45329;-64
2023/06/03 03:13:30;;;;;;;;;10.00;7.25;;;;;22.74;36.96;101217.25;4959028;28;45453;-63
2023/06/03 03:15:56;;;;;;;;;10.00;8.50;;;;;22.73;36.87;101212.88;4958847;28;45373;-60
2023/06/03 03:18:22;;;;;;;;;12.25;7.25;;;;;22.72;37.01;101214.69;4958841;28;45633;-59
2023/06/03 03:20:47;;;;;;;;;7.50;6.00;;;;;22.73;36.98;101211.13;4959200;28;45776;-63
2023/06/03 03:23:13;;;;;;;;;7.25;7.25;;;;;22.73;37.06;101212.88;4958687;28;48216;-65
2023/06/03 03:25:40;;;;;;;;;9.75;6.25;;;;;22.72;37.08;101214.69;4958983;28;45217;-65
2023/06/03 03:28:06;;;;;;;;;9.75;8.00;;;;;22.72;37.18;101216.47;4958531;28;45468;-65
2023/06/03 03:30:31;;;;;;;;;10.75;7.75;;;;;22.71;36.99;101215.63;4958641;28;45998;-65
2023/06/03 03:32:58;;;;;;;;;6.75;6.75;;;;;22.70;37.26;101214.78;4958789;28;45511;-65
2023/06/03 03:35:24;;;;;;;;;7.00;6.00;;;;;22.70;37.42;101208.66;4958835;28;45478;-65
2023/06/03 03:38:02;;;;;;;;;8.50;8.25;;;;;22.70;37.08;101208.66;4958869;28;45424;-65
2023/06/03 03:40:27;;;;;;;;;8.50;7.50;;;;;22.68;37.33;101211.38;4941390;28;45358;-64
2023/06/03 03:42:54;;;;;;;;;7.00;7.00;;;;;22.68;36.97;101208.75;4958530;28;45187;-48
2023/06/03 03:45:22;;;;;;;;;8.00;7.25;;;;;22.70;37.10;101221.84;4959141;28;45215;-63
2023/06/03 03:47:49;;;;;;;;;10.00;7.25;;;;;22.70;37.36;101219.22;4958449;28;46098;-62
2023/06/03 03:50:38;;;;;;;;;8.00;6.50;;;;;22.70;36.83;101221.84;4958371;28;45408;-66
2023/06/03 03:53:05;;;;;;;;;8.00;5.75;;;;;22.69;37.35;101213.09;4956316;28;45232;-62
2023/06/03 03:55:33;;;;;;;;;7.75;7.00;;;;;22.68;37.35;101226.38;4958522;28;45612;-64
2023/06/03 03:58:15;;;;;;;;;8.50;6.25;;;;;22.67;37.43;101220.25;4940671;28;48544;-65
2023/06/03 04:00:41;;;;;;;;;7.75;7.75;;;;;22.68;37.37;101231.66;4958124;28;45770;-66
2023/06/03 04:03:09;;;;;;;;;5.25;5.25;;;;;22.68;37.23;101231.66;4958330;28;45702;-63
2023/06/03 04:05:36;;;;;;;;;6.75;6.00;;;;;22.67;37.11;101227.31;4958350;28;45504;-64
2023/06/03 04:08:03;;;;;;;;;7.25;7.25;;;;;22.68;37.28;101226.38;4957990;28;46763;-57
2023/06/03 04:10:28;;;;;;;;;7.50;6.75;;;;;22.69;37.60;101225.44;4957883;28;45772;-52
2023/06/03 04:12:54;;;;;;;;;7.75;7.75;;;;;22.67;37.27;101216.75;4958579;28;45308;-57
2023/06/03 04:15:24;;;;;;;;;6.25;6.25;;;;;22.67;37.40;101222.03;4958160;28;45678;-54
2023/06/03 04:17:50;;;;;;;;;10.50;9.50;;;;;22.68;37.50;101226.38;4958183;28;46971;-59
2023/06/03 04:20:33;;;;;;;;;9.75;9.25;;;;;22.67;37.34;101224.66;4940612;28;45811;-56
2023/06/03 04:23:03;;;;;;;;;9.00;8.00;;;;;22.66;37.61;101221.19;4958170;28;45415;-59
2023/06/03 04:25:29;;;;;;;;;9.00;7.50;;;;;22.65;37.44;101222.13;4958366;28;45535;-59
2023/06/03 04:27:55;;;;;;;;;10.25;8.25;;;;;22.64;37.51;101217.78;4957789;28;47003;-51
2023/06/03 04:30:21;;;;;;;;;13.50;10.25;;;;;22.62;37.89;101218.81;4958034;28;45205;-59
2023/06/03 04:32:47;;;;;;;;;10.25;9.00;;;;;22.63;37.67;101223.16;4957869;28;45242;-60
2023/06/03 04:35:12;;;;;;;;;8.25;7.50;;;;;22.62;37.62;101227.59;4956079;28;45462;-58
2023/06/03 04:37:37;;;;;;;;;8.33;6.67;;;;;22.61;37.50;101230.31;4957145;28;60934;-64
2023/06/03 04:40:04;;;;;;;;;7.50;6.75;;;;;22.62;37.67;101229.38;4957712;28;45607;-65
2023/06/03 04:42:30;;;;;;;;;9.25;8.25;;;;;22.62;37.57;101245.22;4957754;28;45421;-63
2023/06/03 04:45:00;;;;;;;;;8.25;7.00;;;;;22.60;37.54;101236.53;4958031;28;45636;-47
2023/06/03 04:47:28;;;;;;;;;5.75;5.75;;;;;22.59;37.56;101232.19;4940277;28;46175;-64
2023/06/03 04:49:54;;;;;;;;;7.25;7.25;;;;;22.58;37.70;101241.06;4957946;28;45914;-64
2023/06/03 04:52:20;;;;;;;;;6.00;5.00;;;;;22.59;37.83;101242.75;4957550;28;45406;-61
2023/06/03 04:54:45;;;;;;;;;8.00;5.25;;;;;22.56;37.59;101246.44;4957684;28;45394;-62
2023/06/03 04:57:11;;;;;;;;;9.00;8.00;;;;;22.57;37.52;101252.56;4957082;28;47398;-59
2023/06/03 04:59:36;;;;;;;;;8.00;7.50;;;;;22.58;37.44;101255.13;4957248;28;45359;-58
2023/06/03 05:02:01;;;;;;;;;6.00;6.00;;;;;22.58;38.00;101254.25;4957303;28;45873;-62
2023/06/03 05:04:29;;;;;;;;;7.25;7.25;;;;;22.57;37.45;101253.44;4959464;28;45698;-54
2023/06/03 05:07:00;;;;;;;;;7.00;6.00;;;;;22.57;37.60;101257.84;4963375;28;46705;-59
2023/06/03 05:09:25;;;;;;;;;8.75;7.00;;;;;22.57;37.86;101261.34;4963970;28;45367;-58
2023/06/03 05:11:51;;;;;;;;;7.50;6.00;;;;;22.57;37.52;101260.50;4963741;28;45360;-60
2023/06/03 05:14:17;;;;;;;;;8.75;5.75;;;;;22.57;37.54;101261.34;4963796;28;45395;-56
2023/06/03 05:16:42;;;;;;;;;4.75;3.50;;;;;22.59;37.60;101269.19;4963497;28;45922;-60
2023/06/03 05:19:07;;;;;;;;;8.00;6.00;;;;;22.59;37.90;101263.91;4963634;28;45259;-63
2023/06/03 05:21:33;;;;;;;;;6.75;6.75;;;;;22.59;37.82;101255.97;4946504;28;45272;-62
2023/06/03 05:23:58;;;;;;;;;7.25;6.00;;;;;22.57;37.81;101253.44;4946158;28;47653;-46
2023/06/03 05:26:23;;;;;;;;;7.25;6.75;;;;;22.59;37.73;101255.97;4946288;28;46274;-48
2023/06/03 05:28:49;;;;;;;;;7.50;6.25;;;;;22.59;37.59;101253.34;4963588;28;45643;-55
2023/06/03 05:31:15;;;;;;;;;9.75;7.25;;;;;22.59;37.65;101253.34;4963561;28;45342;-46
2023/06/03 05:33:41;;;;;;;;;8.50;7.00;;;;;22.58;37.74;101262.19;4963787;28;45323;-49
2023/06/03 05:36:10;;;;;;;;;9.50;7.00;;;;;22.58;37.63;101251.63;4963383;28;45410;-48
2023/06/03 05:38:35;;;;;;;;;9.50;8.00;;;;;22.58;37.77;101256.91;4963505;28;45895;-42
2023/06/03 05:41:03;;;;;;;;;8.00;7.75;;;;;22.58;37.55;101254.25;4963512;28;45303;-59
2023/06/03 05:43:28;;;;;;;;;7.75;6.50;;;;;22.58;37.63;101254.25;4964011;28;45576;-62
2023/06/03 05:45:54;;;;;;;;;7.00;7.00;;;;;22.58;37.63;101251.63;4945670;28;48288;-57
2023/06/03 05:48:19;;;;;;;;;7.25;7.00;;;;;22.58;37.24;101256.91;4946015;28;45346;-60
2023/06/03 05:50:50;;;;;;;;;7.00;7.00;;;;;22.57;37.59;101256.06;4963526;28;45231;-62
2023/06/03 05:53:28;;;;;;;;;9.00;7.00;;;;;22.58;37.48;101254.25;4963499;28;45522;-58
2023/06/03 05:55:53;;;;;;;;;7.00;6.00;;;;;22.57;37.72;101255.19;4963269;28;45346;-63
2023/06/03 05:58:20;;;;;;;;;7.50;6.75;;;;;22.58;37.47;101263.06;4962990;28;45424;-64
2023/06/03 06:00:46;;;;;;;;;11.00;6.00;;;;;22.58;37.84;101264.84;4963403;28;45267;-63
2023/06/03 06:03:15;;;;;;;;;9.00;7.50;;;;;22.57;37.31;101264.00;4963369;28;45355;-63
2023/06/03 06:05:40;;;;;;;;;6.00;4.75;;;;;22.58;37.81;101262.19;4962947;28;45535;-49
2023/06/03 06:08:06;;;;;;;;;8.00;6.25;;;;;22.57;37.70;101265.78;4963071;28;45461;-62
2023/06/03 06:10:32;;;;;;;;;8.00;6.00;;;;;22.57;37.59;101268.41;4962654;28;45271;-60
2023/06/03 06:12:57;;;;;;;;;6.75;5.00;;;;;22.59;37.25;101274.47;4962761;28;45294;-64
2023/06/03 06:15:22;;;;;;;;;6.50;6.00;;;;;22.59;37.53;101269.19;4961933;28;45366;-59
2023/06/03 06:17:48;;;;;;;;;10.75;8.25;;;;;22.59;37.64;101269.19;4958061;28;45301;-58
2023/06/03 06:20:14;;;;;;;;;7.75;5.75;;;;;22.61;37.58;101270.78;4958965;28;45256;-63
2023/06/03 06:22:39;;;;;;;;;6.50;6.50;;;;;22.62;37.43;101269.84;4959242;28;45543;-63
2023/06/03 06:25:06;;;;;;;;;7.00;7.00;;;;;22.64;37.38;101275.91;4959251;28;45607;-63
2023/06/03 06:27:32;;;;;;;;;10.75;8.00;;;;;22.64;37.41;101283.00;4959513;28;45346;-64
2023/06/03 06:29:58;;;;;;;;;11.75;7.50;;;;;22.67;37.53;101278.38;4959008;28;45575;-62
2023/06/03 06:32:25;;;;;;;;;7.00;7.00;;;;;22.68;37.72;101276.56;4959837;28;45342;-62
2023/06/03 06:34:51;;;;;;;;;6.00;5.00;;;;;22.67;37.67;101269.59;4941895;28;45577;-64
2023/06/03 06:37:21;;;;;;;;;7.00;6.50;;;;;22.69;37.39;101278.28;4959325;28;45431;-67
2023/06/03 06:39:52;;;;;;;;;8.75;7.50;;;;;22.67;37.62;101273.09;4941910;28;45419;-60
2023/06/03 06:42:32;;;;;;;;;7.75;6.25;;;;;22.67;37.74;101272.22;4959575;28;45638;-62
2023/06/03 06:44:59;;;;;;;;;7.00;6.00;;;;;22.66;37.69;101268.75;4959235;28;46870;-64
2023/06/03 06:47:26;;;;;;;;;8.75;7.00;;;;;22.67;37.24;101274.88;4959030;28;45373;-59
2023/06/03 06:49:55;;;;;;;;;6.00;6.00;;;;;22.68;37.69;101273.94;4959198;28;45344;-52
2023/06/03 06:52:22;;;;;;;;;7.25;7.25;;;;;22.68;37.37;101276.56;4959378;28;45387;-66
2023/06/03 06:54:48;;;;;;;;;6.25;6.25;;;;;22.68;37.65;101279.22;4958944;28;46208;-62
2023/06/03 06:57:22;;;;;;;;;8.75;7.00;;;;;22.71;37.94;101281.69;4959225;28;46610;-61
2023/06/03 06:59:48;;;;;;;;;8.00;6.00;;;;;22.71;37.64;101276.41;4959165;28;45445;-55
2023/06/03 07:02:15;;;;;;;;;7.25;7.25;;;;;22.70;37.66;101277.34;4941917;28;45604;-65
2023/06/03 07:04:40;;;;;;;;;10.75;9.25;;;;;22.71;37.38;101281.69;4958609;28;45642;-61
2023/06/03 07:07:05;;;;;;;;;7.00;5.50;;;;;22.71;37.70;101281.69;4958073;28;59881;-52
2023/06/03 07:09:31;;;;;;;;;6.25;6.25;;;;;22.72;37.44;101274.59;4959317;28;45411;-60
2023/06/03 07:11:56;;;;;;;;;7.50;7.00;;;;;22.72;37.39;101280.75;4959154;28;45584;-59
2023/06/03 07:14:22;;;;;;;;;5.25;4.25;;;;;22.72;37.87;101274.59;4958722;28;45608;-66
2023/06/03 07:16:48;;;;;;;;;7.00;6.25;;;;;22.74;37.36;101283.28;4958259;28;45281;-58
2023/06/03 07:19:14;;;;;;;;;7.75;6.50;;;;;22.74;37.62;101276.25;4958740;28;45365;-61
2023/06/03 07:21:39;;;;;;;;;10.00;7.00;;;;;22.75;37.71;101277.06;4958824;28;45176;-61
2023/06/03 07:24:08;;;;;;;;;7.00;5.50;;;;;22.75;37.33;101275.28;4958949;28;45295;-65
2023/06/03 07:26:34;;;;;;;;;8.50;7.00;;;;;22.75;37.66;101267.38;4958728;28;46028;-62
2023/06/03 07:28:59;;;;;;;;;7.75;6.00;;;;;22.77;37.41;101277.84;4941104;28;45352;-57
2023/06/03 07:31:26;;;;;;;;;7.75;6.00;;;;;22.77;37.50;101278.69;4958781;28;45505;-55
2023/06/03 07:33:57;;;;;;;;;9.00;6.00;;;;;22.78;37.69;101280.38;4958322;28;46568;-60
2023/06/03 07:36:24;;;;;;;;;6.75;6.00;;;;;22.79;37.57;101275.97;4958409;28;45323;-56
2023/06/03 07:39:02;;;;;;;;;8.00;6.00;;;;;22.79;37.41;101276.81;4958632;28;45464;-56
2023/06/03 07:41:52;;;;;;;;;6.75;5.00;;;;;22.80;37.63;101278.50;4958573;28;45273;-61
2023/06/03 07:44:47;;;;;;;;;9.00;7.00;;;;;22.82;37.52;101268.72;4957123;28;46242;-49
2023/06/03 07:47:14;;;;;;;;;7.25;7.25;;;;;22.85;37.51;101279.09;4958235;28;45782;-52
2023/06/03 07:49:42;;;;;;;;;7.25;7.00;;;;;22.89;37.45;101276.25;4958499;28;45437;-57
2023/06/03 07:52:14;;;;;;;;;8.75;6.00;;;;;22.93;37.82;101289.22;4958510;28;45532;-54
2023/06/03 07:54:39;;;;;;;;;5.25;5.00;;;;;22.95;37.47;101278.56;4958048;28;45433;-55
2023/06/03 07:57:05;;;;;;;;;9.25;7.50;;;;;22.95;37.59;101276.75;4958130;28;48230;-51
2023/06/03 07:59:31;;;;;;;;;6.25;6.25;;;;;22.97;37.68;101272.25;4958394;28;45467;-49
2023/06/03 08:02:00;;;;;;;;;7.00;6.00;;;;;22.98;37.73;101275.75;4941172;28;45339;-48
2023/06/03 08:04:29;;;;;;;;;8.00;6.00;;;;;22.97;37.53;101280.16;4958121;28;46808;-46
2023/06/03 08:06:56;;;;;;;;;6.50;6.00;;;;;22.98;37.39;101278.38;4940314;28;45394;-54
2023/06/03 08:09:27;;;;;;;;;8.00;8.00;;;;;22.97;37.35;101274.03;4958051;28;45410;-57
2023/06/03 08:11:56;;;;;;;;;5.00;5.00;;;;;22.96;37.73;101273.16;4958383;28;45604;-52
2023/06/03 08:14:24;;;;;;;;;8.00;7.50;;;;;22.98;37.55;101273.09;4957759;28;46667;-49
2023/06/03 08:16:51;;;;;;;;;7.00;7.00;;;;;22.98;37.47;101273.09;4957067;28;45816;-47
2023/06/03 08:19:17;;;;;;;;;7.00;6.00;;;;;22.99;37.29;101272.13;4957722;28;45337;-58
2023/06/03 08:21:44;;;;;;;;;12.25;9.00;;;;;22.98;37.58;101271.31;4958095;28;45576;-51
2023/06/03 08:24:10;;;;;;;;;11.00;8.50;;;;;22.97;37.87;101264.31;4957635;28;45405;-54
2023/06/03 08:26:36;;;;;;;;;9.50;8.00;;;;;22.98;37.59;101260.72;4958073;28;45331;-49
2023/06/03 08:29:03;;;;;;;;;7.75;7.75;;;;;23.00;37.52;101271.19;4957930;28;45385;-57
2023/06/03 08:31:32;;;;;;;;;6.50;6.50;;;;;23.00;37.41;101264.13;4957879;28;45212;-56
2023/06/03 08:33:57;;;;;;;;;7.50;7.00;;;;;22.99;37.46;101257.16;4957531;28;45445;-61
2023/06/03 08:36:23;;;;;;;;;8.25;6.75;;;;;23.00;37.67;101264.13;4957353;28;45446;-60
2023/06/03 08:38:48;;;;;;;;;9.75;8.00;;;;;23.00;37.42;101257.97;4957137;28;46333;-49
2023/06/03 08:41:14;;;;;;;;;8.00;7.00;;;;;23.01;37.90;101259.69;4957629;28;45402;-61
2023/06/03 08:43:50;;;;;;;;;8.00;6.25;;;;;23.01;37.27;101259.69;4957872;28;46679;-55
2023/06/03 08:46:43;;;;;;;;;8.25;8.25;;;;;23.01;37.26;101259.69;4957441;28;45350;-54
2023/06/03 08:49:15;;;;;;;;;8.75;7.00;;;;;23.01;37.52;101260.56;4957643;28;45383;-47
2023/06/03 08:51:42;;;;;;;;;10.50;7.00;;;;;23.02;37.77;101261.38;4957836;28;45390;-52
2023/06/03 08:54:17;;;;;;;;;9.50;8.00;;;;;23.01;37.78;101252.63;4957711;28;45743;-60
2023/06/03 08:56:49;;;;;;;;;10.00;7.25;;;;;23.00;37.24;101248.28;4957495;28;45781;-57
2023/06/03 08:59:25;;;;;;;;;4.00;4.00;;;;;23.00;37.69;101250.91;4957291;28;45267;-61
2023/06/03 09:01:53;;;;;;;;;9.75;8.00;;;;;23.00;37.57;101252.69;4957763;28;45274;-61
2023/06/03 09:04:20;;;;;;;;;8.50;8.50;;;;;23.00;37.25;101252.69;4956909;28;45554;-61
2023/06/03 09:06:46;;;;;;;;;8.00;7.00;;;;;22.98;37.10;101251.97;4956936;28;45824;-61
2023/06/03 09:09:12;;;;;;;;;9.00;7.50;;;;;23.00;37.54;101252.69;4957659;28;45315;-50
2023/06/03 09:11:39;;;;;;;;;7.25;7.25;;;;;23.01;37.69;101251.75;4957921;28;45426;-61
2023/06/03 09:14:05;;;;;;;;;10.00;7.50;;;;;23.00;37.57;101248.28;4957193;28;45538;-57
2023/06/03 09:16:32;;;;;;;;;8.25;8.25;;;;;23.00;37.54;101245.63;4956844;28;45818;-49
2023/06/03 09:18:57;;;;;;;;;8.25;8.00;;;;;23.00;37.55;101253.56;4957350;28;45379;-61
2023/06/03 09:21:23;;;;;;;;;7.25;7.25;;;;;23.01;37.78;101249.97;4957237;28;45484;-60
2023/06/03 09:23:51;;;;;;;;;7.00;5.25;;;;;23.02;37.33;101248.16;4957052;28;47429;-61
2023/06/03 09:26:17;;;;;;;;;7.75;7.75;;;;;23.01;37.44;101242.03;4956982;28;45441;-62
2023/06/03 09:28:42;;;;;;;;;9.00;6.50;;;;;23.02;37.46;101250.81;4957307;28;45347;-59
2023/06/03 09:31:07;;;;;;;;;12.00;8.50;;;;;23.03;37.81;101252.53;4957596;28;45474;-55
2023/06/03 09:33:35;;;;;;;;;10.50;9.00;;;;;23.03;37.59;101252.53;4957217;28;47318;-58
2023/06/03 09:36:13;;;;;;;;;13.00;10.00;;;;;23.04;37.12;101254.22;4957150;28;45247;-58
2023/06/03 09:38:51;;;;;;;;;9.75;8.75;;;;;23.04;37.24;101259.50;4957503;28;45429;-61
2023/06/03 09:41:19;;;;;;;;;8.00;7.25;;;;;23.05;37.78;101263.00;4957400;28;45409;-56
2023/06/03 09:43:58;;;;;;;;;10.25;9.50;;;;;23.06;37.42;101251.47;4956960;28;46730;-60
2023/06/03 09:46:25;;;;;;;;;8.50;8.00;;;;;23.07;37.24;101261.13;4956784;28;45952;-61
2023/06/03 09:48:50;;;;;;;;;9.00;8.50;;;;;23.07;37.36;101263.75;4956865;28;45465;-58
2023/06/03 09:51:15;;;;;;;;;6.00;6.00;;;;;23.07;37.45;101259.34;4957339;28;45354;-59
2023/06/03 09:53:41;;;;;;;;;8.75;8.75;;;;;23.06;37.10;101249.69;4960317;28;46216;-61
2023/06/03 09:56:26;;;;;;;;;8.75;8.75;;;;;23.07;37.19;101254.03;4942632;28;45525;-58
2023/06/03 09:59:31;;;;;;;;;10.00;8.50;;;;;23.07;37.40;101251.41;4959922;28;45446;-61
2023/06/03 10:01:56;;;;;;;;;9.50;8.25;;;;;23.07;37.45;101259.34;4959824;28;45673;-60
2023/06/03 10:04:23;;;;;;;;;6.00;5.00;;;;;23.07;36.97;101253.19;4959015;28;68570;-60
2023/06/03 10:07:11;;;;;;;;;11.00;9.00;;;;;23.09;36.95;101251.31;4942098;28;45471;-60
2023/06/03 10:09:37;;;;;;;;;8.25;6.00;;;;;23.08;36.56;101255.75;4960042;28;45292;-60
2023/06/03 10:12:03;;;;;;;;;7.00;7.00;;;;;23.09;36.88;101253.94;4960067;28;45306;-60
2023/06/03 10:14:28;;;;;;;;;11.00;8.00;;;;;23.08;36.56;101245.19;4942281;28;46527;-60
2023/06/03 10:17:06;;;;;;;;;8.50;8.50;;;;;23.11;36.94;101254.72;4959708;28;45319;-58
2023/06/03 10:19:40;;;;;;;;;9.00;7.00;;;;;23.10;36.46;101251.19;4959906;28;45374;-61
2023/06/03 10:22:07;;;;;;;;;8.00;6.25;;;;;23.11;36.66;101242.31;4959911;28;45418;-60
2023/06/03 10:24:44;;;;;;;;;8.50;6.50;;;;;23.11;36.69;101242.31;4959509;28;47361;-61
2023/06/03 10:27:10;;;;;;;;;10.00;8.00;;;;;23.12;36.62;101246.69;4959461;28;45887;-59
2023/06/03 10:29:36;;;;;;;;;9.75;8.00;;;;;23.12;36.49;101240.56;4959699;28;45409;-62
2023/06/03 10:32:04;;;;;;;;;8.75;7.50;;;;;23.13;36.81;101243.09;4959709;28;45475;-62
2023/06/03 10:34:31;;;;;;;;;9.00;7.75;;;;;23.14;37.00;101243.97;4941787;28;46958;-59
2023/06/03 10:37:02;;;;;;;;;8.25;8.25;;;;;23.14;36.60;101238.66;4959338;28;45393;-62
2023/06/03 10:39:29;;;;;;;;;8.00;8.00;;;;;23.13;36.31;101237.81;4959562;28;45367;-62
2023/06/03 10:42:09;;;;;;;;;14.00;7.75;;;;;23.15;36.48;101235.09;4942387;28;45398;-56
2023/06/03 10:44:35;;;;;;;;;8.75;8.50;;;;;23.15;36.23;101235.91;4959173;28;46576;-58
2023/06/03 10:47:09;;;;;;;;;6.50;6.50;;;;;23.15;35.84;101238.56;4959188;28;45429;-61
2023/06/03 10:50:04;;;;;;;;;8.50;7.50;;;;;23.15;36.56;101238.56;4959393;28;45472;-51
2023/06/03 10:52:49;;;;;;;;;11.75;9.00;;;;;23.15;36.12;101241.22;4934313;28;45507;-55
2023/06/03 10:55:42;;;;;;;;;9.50;8.25;;;;;23.16;35.99;101237.63;4958188;28;46617;-51
2023/06/03 10:58:28;;;;;;;;;11.00;9.00;;;;;23.16;36.18;101234.97;4959451;28;45389;-60
2023/06/03 11:01:05;;;;;;;;;11.00;9.25;;;;;23.17;36.00;101234.03;4959002;28;45228;-61
2023/06/03 11:03:32;;;;;;;;;8.00;6.00;;;;;23.17;35.91;101234.03;4957591;28;45491;-61
2023/06/03 11:06:17;;;;;;;;;9.25;8.00;;;;;23.18;35.92;101242.81;4958834;28;46467;-60
2023/06/03 11:09:15;;;;;;;;;10.00;10.00;;;;;23.19;35.70;101238.41;4958897;28;45761;-59
2023/06/03 11:11:40;;;;;;;;;9.00;8.00;;;;;23.21;35.89;101236.50;4958001;28;45555;-58
2023/06/03 11:14:10;;;;;;;;;8.75;7.00;;;;;23.21;36.17;101228.56;4959270;28;45532;-59
2023/06/03 11:16:57;;;;;;;;;11.75;8.75;;;;;23.21;35.81;101231.22;4958694;28;45288;-57
2023/06/03 11:19:31;;;;;;;;;10.25;8.50;;;;;23.22;35.83;101225.00;4958949;28;45352;-61
2023/06/03 11:22:10;;;;;;;;;8.25;8.25;;;;;23.23;35.88;101232.84;4958961;28;45355;-60
2023/06/03 11:24:38;;;;;;;;;10.00;9.00;;;;;23.24;35.93;101223.13;4959169;28;45303;-55
2023/06/03 11:27:09;;;;;;;;;13.25;10.75;;;;;23.23;35.75;101232.00;4958571;28;45414;-58
2023/06/03 11:29:44;;;;;;;;;11.00;10.25;;;;;23.24;36.12;101237.19;4958615;28;45888;-58